sensor_id;sensor_type;location;lat;lon;timestamp;P1;durP1;ratioP1;P2;durP2;ratioP2
55015;SDS011;40919;43.236;21.590;2022-11-06T00:00:33;33.80;;;20.73;;
55015;SDS011;40919;43.236;21.590;2022-11-06T00:03:00;32.40;;;19.08;;
55015;SDS011;40919;43.236;21.590;2022-11-06T00:05:30;29.77;;;19.40;;
55015;SDS011;40919;43.236;21.590;2022-11-06T00:08:24;36.17;;;20.70;;
55015;SDS011;40919;43.236;21.590;2022-11-06T00:10:51;27.65;;;17.83;;
55015;SDS011;40919;43.236;21.590;2022-11-06T00:13:17;28.88;;;19.35;;
55015;SDS011;40919;43.236;21.590;2022-11-06T00:15:43;36.35;;;20.77;;
55015;SDS011;40919;43.236;21.590;2022-11-06T00:18:09;30.92;;;18.08;;
55015;SDS011;40919;43.236;21.590;2022-11-06T00:20:37;26.90;;;18.23;;
55015;SDS011;40919;43.236;21.590;2022-11-06T00:23:03;29.85;;;18.52;;
55015;SDS011;40919;43.236;21.590;2022-11-06T00:25:29;24.92;;;17.23;;
55015;SDS011;40919;43.236;21.590;2022-11-06T00:27:56;27.77;;;18.15;;
55015;SDS011;40919;43.236;21.590;2022-11-06T00:30:22;30.92;;;18.55;;
55015;SDS011;40919;43.236;21.590;2022-11-06T00:32:48;28.58;;;17.75;;
55015;SDS011;40919;43.236;21.590;2022-11-06T00:35:14;29.02;;;17.40;;
55015;SDS011;40919;43.236;21.590;2022-11-06T00:37:40;29.88;;;18.98;;
55015;SDS011;40919;43.236;21.590;2022-11-06T00:40:06;28.88;;;18.73;;
55015;SDS011;40919;43.236;21.590;2022-11-06T00:42:32;30.58;;;20.08;;
55015;SDS011;40919;43.236;21.590;2022-11-06T00:44:58;29.27;;;19.90;;
55015;SDS011;40919;43.236;21.590;2022-11-06T00:47:24;34.08;;;19.42;;
55015;SDS011;40919;43.236;21.590;2022-11-06T00:49:51;33.10;;;21.13;;
55015;SDS011;40919;43.236;21.590;2022-11-06T00:52:17;34.13;;;19.33;;
55015;SDS011;40919;43.236;21.590;2022-11-06T00:54:43;32.65;;;20.27;;
55015;SDS011;40919;43.236;21.590;2022-11-06T00:57:09;31.27;;;20.52;;
55015;SDS011;40919;43.236;21.590;2022-11-06T00:59:35;35.08;;;20.98;;
55015;SDS011;40919;43.236;21.590;2022-11-06T01:02:01;33.30;;;20.65;;
55015;SDS011;40919;43.236;21.590;2022-11-06T01:04:27;32.13;;;20.80;;
55015;SDS011;40919;43.236;21.590;2022-11-06T01:06:53;32.92;;;20.83;;
55015;SDS011;40919;43.236;21.590;2022-11-06T01:09:23;40.88;;;24.10;;
55015;SDS011;40919;43.236;21.590;2022-11-06T01:11:51;38.50;;;22.23;;
55015;SDS011;40919;43.236;21.590;2022-11-06T01:14:17;37.13;;;22.70;;
55015;SDS011;40919;43.236;21.590;2022-11-06T01:16:44;44.60;;;24.95;;
55015;SDS011;40919;43.236;21.590;2022-11-06T01:19:11;41.03;;;23.42;;
55015;SDS011;40919;43.236;21.590;2022-11-06T01:21:39;45.25;;;23.67;;
55015;SDS011;40919;43.236;21.590;2022-11-06T01:24:08;41.92;;;22.50;;
55015;SDS011;40919;43.236;21.590;2022-11-06T01:26:35;37.38;;;21.52;;
55015;SDS011;40919;43.236;21.590;2022-11-06T01:29:02;38.10;;;20.80;;
55015;SDS011;40919;43.236;21.590;2022-11-06T01:31:29;37.15;;;20.83;;
55015;SDS011;40919;43.236;21.590;2022-11-06T01:33:56;43.05;;;23.48;;
55015;SDS011;40919;43.236;21.590;2022-11-06T01:36:23;45.17;;;24.98;;
55015;SDS011;40919;43.236;21.590;2022-11-06T01:38:50;39.15;;;21.23;;
55015;SDS011;40919;43.236;21.590;2022-11-06T01:41:27;50.85;;;24.42;;
55015;SDS011;40919;43.236;21.590;2022-11-06T01:43:55;43.58;;;25.33;;
55015;SDS011;40919;43.236;21.590;2022-11-06T01:46:26;35.95;;;21.75;;
55015;SDS011;40919;43.236;21.590;2022-11-06T01:48:54;37.25;;;21.30;;
55015;SDS011;40919;43.236;21.590;2022-11-06T01:51:21;40.13;;;21.55;;
55015;SDS011;40919;43.236;21.590;2022-11-06T01:53:48;46.58;;;26.65;;
55015;SDS011;40919;43.236;21.590;2022-11-06T01:56:15;50.40;;;24.48;;
55015;SDS011;40919;43.236;21.590;2022-11-06T01:58:42;38.60;;;22.20;;
55015;SDS011;40919;43.236;21.590;2022-11-06T02:01:08;39.88;;;20.83;;
55015;SDS011;40919;43.236;21.590;2022-11-06T02:03:35;49.80;;;24.83;;
55015;SDS011;40919;43.236;21.590;2022-11-06T02:06:04;54.40;;;25.50;;
55015;SDS011;40919;43.236;21.590;2022-11-06T02:08:32;50.72;;;23.90;;
55015;SDS011;40919;43.236;21.590;2022-11-06T02:10:58;38.05;;;20.75;;
55015;SDS011;40919;43.236;21.590;2022-11-06T02:16:06;33.45;;;20.00;;
55015;SDS011;40919;43.236;21.590;2022-11-06T02:18:49;33.33;;;19.73;;
55015;SDS011;40919;43.236;21.590;2022-11-06T02:29:16;36.17;;;19.15;;
55015;SDS011;40919;43.236;21.590;2022-11-06T02:31:44;30.08;;;18.70;;
55015;SDS011;40919;43.236;21.590;2022-11-06T02:34:11;36.25;;;21.33;;
55015;SDS011;40919;43.236;21.590;2022-11-06T02:36:40;28.05;;;18.15;;
55015;SDS011;40919;43.236;21.590;2022-11-06T02:39:08;29.17;;;17.40;;
55015;SDS011;40919;43.236;21.590;2022-11-06T02:41:37;28.10;;;16.70;;
55015;SDS011;40919;43.236;21.590;2022-11-06T02:44:05;26.50;;;16.40;;
55015;SDS011;40919;43.236;21.590;2022-11-06T02:49:10;26.90;;;16.48;;
55015;SDS011;40919;43.236;21.590;2022-11-06T02:51:38;31.73;;;19.00;;
55015;SDS011;40919;43.236;21.590;2022-11-06T02:54:09;29.05;;;16.70;;
55015;SDS011;40919;43.236;21.590;2022-11-06T02:56:36;27.17;;;17.80;;
55015;SDS011;40919;43.236;21.590;2022-11-06T02:59:05;27.88;;;17.77;;
55015;SDS011;40919;43.236;21.590;2022-11-06T03:02:18;23.58;;;15.23;;
55015;SDS011;40919;43.236;21.590;2022-11-06T03:04:27;32.17;;;18.50;;
55015;SDS011;40919;43.236;21.590;2022-11-06T03:09:43;29.30;;;17.20;;
55015;SDS011;40919;43.236;21.590;2022-11-06T03:17:37;32.85;;;20.15;;
55015;SDS011;40919;43.236;21.590;2022-11-06T03:22:39;45.00;;;24.00;;
55015;SDS011;40919;43.236;21.590;2022-11-06T03:27:59;26.95;;;16.52;;
55015;SDS011;40919;43.236;21.590;2022-11-06T03:30:26;22.35;;;14.35;;
55015;SDS011;40919;43.236;21.590;2022-11-06T03:32:56;29.65;;;17.92;;
55015;SDS011;40919;43.236;21.590;2022-11-06T03:35:40;38.88;;;24.38;;
55015;SDS011;40919;43.236;21.590;2022-11-06T03:38:09;35.03;;;20.50;;
55015;SDS011;40919;43.236;21.590;2022-11-06T03:40:43;30.75;;;19.23;;
55015;SDS011;40919;43.236;21.590;2022-11-06T03:43:12;40.58;;;21.55;;
55015;SDS011;40919;43.236;21.590;2022-11-06T03:45:40;34.85;;;19.20;;
55015;SDS011;40919;43.236;21.590;2022-11-06T03:48:13;34.88;;;19.83;;
55015;SDS011;40919;43.236;21.590;2022-11-06T03:50:49;31.52;;;19.30;;
55015;SDS011;40919;43.236;21.590;2022-11-06T03:53:33;28.92;;;18.55;;
55015;SDS011;40919;43.236;21.590;2022-11-06T03:56:17;24.55;;;14.85;;
55015;SDS011;40919;43.236;21.590;2022-11-06T03:58:55;26.50;;;16.55;;
55015;SDS011;40919;43.236;21.590;2022-11-06T04:01:24;27.05;;;16.08;;
55015;SDS011;40919;43.236;21.590;2022-11-06T04:06:31;23.58;;;14.60;;
55015;SDS011;40919;43.236;21.590;2022-11-06T04:09:23;27.45;;;15.48;;
55015;SDS011;40919;43.236;21.590;2022-11-06T04:12:12;22.35;;;14.07;;
55015;SDS011;40919;43.236;21.590;2022-11-06T04:15:02;21.95;;;13.35;;
55015;SDS011;40919;43.236;21.590;2022-11-06T04:17:29;22.15;;;12.18;;
55015;SDS011;40919;43.236;21.590;2022-11-06T04:19:59;17.98;;;11.43;;
55015;SDS011;40919;43.236;21.590;2022-11-06T04:22:31;19.75;;;11.35;;
55015;SDS011;40919;43.236;21.590;2022-11-06T04:28:05;16.63;;;11.55;;
55015;SDS011;40919;43.236;21.590;2022-11-06T04:30:52;18.58;;;11.65;;
55015;SDS011;40919;43.236;21.590;2022-11-06T04:34:06;20.23;;;11.32;;
55015;SDS011;40919;43.236;21.590;2022-11-06T04:36:16;18.65;;;11.18;;
55015;SDS011;40919;43.236;21.590;2022-11-06T04:41:32;16.63;;;11.40;;
55015;SDS011;40919;43.236;21.590;2022-11-06T04:44:09;16.67;;;10.18;;
55015;SDS011;40919;43.236;21.590;2022-11-06T04:46:48;15.40;;;10.30;;
55015;SDS011;40919;43.236;21.590;2022-11-06T04:49:17;17.05;;;10.65;;
55015;SDS011;40919;43.236;21.590;2022-11-06T04:51:45;16.30;;;10.35;;
55015;SDS011;40919;43.236;21.590;2022-11-06T04:54:11;19.52;;;11.40;;
55015;SDS011;40919;43.236;21.590;2022-11-06T04:56:39;16.98;;;11.43;;
55015;SDS011;40919;43.236;21.590;2022-11-06T04:59:05;15.63;;;10.70;;
55015;SDS011;40919;43.236;21.590;2022-11-06T05:01:32;16.60;;;11.43;;
55015;SDS011;40919;43.236;21.590;2022-11-06T05:03:58;19.45;;;11.80;;
55015;SDS011;40919;43.236;21.590;2022-11-06T05:06:24;18.63;;;10.52;;
55015;SDS011;40919;43.236;21.590;2022-11-06T05:08:50;20.30;;;10.27;;
55015;SDS011;40919;43.236;21.590;2022-11-06T05:11:16;16.48;;;10.43;;
55015;SDS011;40919;43.236;21.590;2022-11-06T05:13:42;16.73;;;10.95;;
55015;SDS011;40919;43.236;21.590;2022-11-06T05:16:09;43.67;;;26.63;;
55015;SDS011;40919;43.236;21.590;2022-11-06T05:18:35;25.40;;;16.13;;
55015;SDS011;40919;43.236;21.590;2022-11-06T05:21:01;26.50;;;15.82;;
55015;SDS011;40919;43.236;21.590;2022-11-06T05:23:46;20.40;;;13.10;;
55015;SDS011;40919;43.236;21.590;2022-11-06T05:26:12;16.60;;;10.52;;
55015;SDS011;40919;43.236;21.590;2022-11-06T05:28:38;19.15;;;12.07;;
55015;SDS011;40919;43.236;21.590;2022-11-06T05:31:05;17.20;;;10.32;;
55015;SDS011;40919;43.236;21.590;2022-11-06T05:33:31;15.38;;;9.23;;
55015;SDS011;40919;43.236;21.590;2022-11-06T05:36:01;14.90;;;9.52;;
55015;SDS011;40919;43.236;21.590;2022-11-06T05:38:27;16.02;;;9.30;;
55015;SDS011;40919;43.236;21.590;2022-11-06T05:40:53;14.40;;;9.40;;
55015;SDS011;40919;43.236;21.590;2022-11-06T05:43:19;13.07;;;8.68;;
55015;SDS011;40919;43.236;21.590;2022-11-06T05:45:45;15.02;;;9.30;;
55015;SDS011;40919;43.236;21.590;2022-11-06T05:48:11;15.85;;;10.00;;
55015;SDS011;40919;43.236;21.590;2022-11-06T05:50:37;15.07;;;9.25;;
55015;SDS011;40919;43.236;21.590;2022-11-06T05:53:03;16.55;;;10.18;;
55015;SDS011;40919;43.236;21.590;2022-11-06T05:55:30;12.50;;;7.65;;
55015;SDS011;40919;43.236;21.590;2022-11-06T05:57:56;11.73;;;7.25;;
55015;SDS011;40919;43.236;21.590;2022-11-06T06:00:22;11.93;;;8.90;;
55015;SDS011;40919;43.236;21.590;2022-11-06T06:02:48;16.02;;;9.35;;
55015;SDS011;40919;43.236;21.590;2022-11-06T06:05:14;11.80;;;7.00;;
55015;SDS011;40919;43.236;21.590;2022-11-06T06:07:40;12.93;;;7.53;;
55015;SDS011;40919;43.236;21.590;2022-11-06T06:10:06;9.82;;;6.18;;
55015;SDS011;40919;43.236;21.590;2022-11-06T06:12:32;16.52;;;9.55;;
55015;SDS011;40919;43.236;21.590;2022-11-06T06:14:59;14.60;;;9.45;;
55015;SDS011;40919;43.236;21.590;2022-11-06T06:17:25;22.75;;;14.45;;
55015;SDS011;40919;43.236;21.590;2022-11-06T06:19:51;18.77;;;12.98;;
55015;SDS011;40919;43.236;21.590;2022-11-06T06:22:18;15.63;;;10.98;;
55015;SDS011;40919;43.236;21.590;2022-11-06T06:24:44;14.32;;;10.07;;
55015;SDS011;40919;43.236;21.590;2022-11-06T06:27:10;11.88;;;8.93;;
55015;SDS011;40919;43.236;21.590;2022-11-06T06:29:36;10.10;;;6.78;;
55015;SDS011;40919;43.236;21.590;2022-11-06T06:32:02;9.80;;;6.50;;
55015;SDS011;40919;43.236;21.590;2022-11-06T06:34:28;10.10;;;6.10;;
55015;SDS011;40919;43.236;21.590;2022-11-06T06:36:55;12.77;;;8.30;;
55015;SDS011;40919;43.236;21.590;2022-11-06T06:39:21;9.85;;;6.38;;
55015;SDS011;40919;43.236;21.590;2022-11-06T06:41:47;12.23;;;7.93;;
55015;SDS011;40919;43.236;21.590;2022-11-06T06:44:13;12.38;;;7.68;;
55015;SDS011;40919;43.236;21.590;2022-11-06T06:46:39;11.88;;;6.72;;
55015;SDS011;40919;43.236;21.590;2022-11-06T06:49:06;9.77;;;6.10;;
55015;SDS011;40919;43.236;21.590;2022-11-06T06:51:32;10.38;;;6.30;;
55015;SDS011;40919;43.236;21.590;2022-11-06T06:53:59;10.40;;;6.93;;
55015;SDS011;40919;43.236;21.590;2022-11-06T06:56:25;10.32;;;6.85;;
55015;SDS011;40919;43.236;21.590;2022-11-06T06:58:54;11.43;;;8.13;;
55015;SDS011;40919;43.236;21.590;2022-11-06T07:01:20;10.50;;;6.43;;
55015;SDS011;40919;43.236;21.590;2022-11-06T07:03:47;12.27;;;6.60;;
55015;SDS011;40919;43.236;21.590;2022-11-06T07:06:13;9.70;;;5.93;;
55015;SDS011;40919;43.236;21.590;2022-11-06T07:08:39;8.98;;;6.60;;
55015;SDS011;40919;43.236;21.590;2022-11-06T07:11:06;9.73;;;6.40;;
55015;SDS011;40919;43.236;21.590;2022-11-06T07:13:32;8.93;;;6.38;;
55015;SDS011;40919;43.236;21.590;2022-11-06T07:16:01;9.77;;;6.70;;
55015;SDS011;40919;43.236;21.590;2022-11-06T07:18:27;9.38;;;6.22;;
55015;SDS011;40919;43.236;21.590;2022-11-06T07:20:53;9.15;;;6.70;;
55015;SDS011;40919;43.236;21.590;2022-11-06T07:23:19;11.25;;;8.05;;
55015;SDS011;40919;43.236;21.590;2022-11-06T07:25:50;13.70;;;9.00;;
55015;SDS011;40919;43.236;21.590;2022-11-06T07:28:17;10.43;;;6.25;;
55015;SDS011;40919;43.236;21.590;2022-11-06T07:30:43;10.95;;;7.20;;
55015;SDS011;40919;43.236;21.590;2022-11-06T07:33:09;12.25;;;8.52;;
55015;SDS011;40919;43.236;21.590;2022-11-06T07:35:35;10.40;;;6.00;;
55015;SDS011;40919;43.236;21.590;2022-11-06T07:38:04;14.18;;;9.63;;
55015;SDS011;40919;43.236;21.590;2022-11-06T07:40:31;11.60;;;8.20;;
55015;SDS011;40919;43.236;21.590;2022-11-06T07:43:08;9.80;;;6.72;;
55015;SDS011;40919;43.236;21.590;2022-11-06T07:45:34;8.07;;;5.78;;
55015;SDS011;40919;43.236;21.590;2022-11-06T07:48:01;9.13;;;5.70;;
55015;SDS011;40919;43.236;21.590;2022-11-06T07:50:27;11.88;;;7.63;;
55015;SDS011;40919;43.236;21.590;2022-11-06T07:52:54;9.68;;;6.15;;
55015;SDS011;40919;43.236;21.590;2022-11-06T07:55:20;11.82;;;7.13;;
55015;SDS011;40919;43.236;21.590;2022-11-06T07:57:46;8.90;;;6.40;;
55015;SDS011;40919;43.236;21.590;2022-11-06T08:00:13;10.25;;;7.15;;
55015;SDS011;40919;43.236;21.590;2022-11-06T08:02:39;11.00;;;7.15;;
55015;SDS011;40919;43.236;21.590;2022-11-06T08:05:06;15.13;;;10.07;;
55015;SDS011;40919;43.236;21.590;2022-11-06T08:07:32;16.65;;;10.77;;
55015;SDS011;40919;43.236;21.590;2022-11-06T08:09:58;17.48;;;11.73;;
55015;SDS011;40919;43.236;21.590;2022-11-06T08:12:24;18.70;;;12.00;;
55015;SDS011;40919;43.236;21.590;2022-11-06T08:14:50;14.02;;;9.98;;
55015;SDS011;40919;43.236;21.590;2022-11-06T08:17:16;12.90;;;8.68;;
55015;SDS011;40919;43.236;21.590;2022-11-06T08:19:42;13.65;;;8.65;;
55015;SDS011;40919;43.236;21.590;2022-11-06T08:22:08;12.00;;;8.45;;
55015;SDS011;40919;43.236;21.590;2022-11-06T08:24:35;14.20;;;8.73;;
55015;SDS011;40919;43.236;21.590;2022-11-06T08:27:01;10.15;;;7.47;;
55015;SDS011;40919;43.236;21.590;2022-11-06T08:29:27;10.40;;;7.38;;
55015;SDS011;40919;43.236;21.590;2022-11-06T08:31:53;10.48;;;7.68;;
55015;SDS011;40919;43.236;21.590;2022-11-06T08:34:19;13.38;;;9.63;;
55015;SDS011;40919;43.236;21.590;2022-11-06T08:36:46;11.15;;;8.10;;
55015;SDS011;40919;43.236;21.590;2022-11-06T08:39:16;11.10;;;7.97;;
55015;SDS011;40919;43.236;21.590;2022-11-06T08:41:42;11.23;;;9.95;;
55015;SDS011;40919;43.236;21.590;2022-11-06T08:44:09;10.45;;;7.43;;
55015;SDS011;40919;43.236;21.590;2022-11-06T08:46:35;12.63;;;8.80;;
55015;SDS011;40919;43.236;21.590;2022-11-06T08:49:01;12.90;;;8.88;;
55015;SDS011;40919;43.236;21.590;2022-11-06T08:51:27;13.90;;;9.60;;
55015;SDS011;40919;43.236;21.590;2022-11-06T08:53:53;15.23;;;9.05;;
55015;SDS011;40919;43.236;21.590;2022-11-06T08:56:20;13.48;;;9.85;;
55015;SDS011;40919;43.236;21.590;2022-11-06T08:58:46;14.45;;;10.10;;
55015;SDS011;40919;43.236;21.590;2022-11-06T09:01:12;12.07;;;9.02;;
55015;SDS011;40919;43.236;21.590;2022-11-06T09:03:38;14.50;;;10.90;;
55015;SDS011;40919;43.236;21.590;2022-11-06T09:06:04;13.82;;;9.38;;
55015;SDS011;40919;43.236;21.590;2022-11-06T09:08:31;12.82;;;9.52;;
55015;SDS011;40919;43.236;21.590;2022-11-06T09:10:57;18.63;;;8.52;;
55015;SDS011;40919;43.236;21.590;2022-11-06T09:13:23;17.08;;;10.70;;
55015;SDS011;40919;43.236;21.590;2022-11-06T09:15:50;20.83;;;13.80;;
55015;SDS011;40919;43.236;21.590;2022-11-06T09:18:16;24.77;;;18.90;;
55015;SDS011;40919;43.236;21.590;2022-11-06T09:20:42;20.08;;;13.93;;
55015;SDS011;40919;43.236;21.590;2022-11-06T09:23:08;15.55;;;9.57;;
55015;SDS011;40919;43.236;21.590;2022-11-06T09:25:34;13.85;;;9.60;;
55015;SDS011;40919;43.236;21.590;2022-11-06T09:28:00;15.35;;;9.23;;
55015;SDS011;40919;43.236;21.590;2022-11-06T09:30:28;20.15;;;10.88;;
55015;SDS011;40919;43.236;21.590;2022-11-06T09:32:55;12.20;;;8.52;;
55015;SDS011;40919;43.236;21.590;2022-11-06T09:35:22;18.55;;;11.57;;
55015;SDS011;40919;43.236;21.590;2022-11-06T09:37:48;14.98;;;9.98;;
55015;SDS011;40919;43.236;21.590;2022-11-06T09:40:19;11.75;;;8.32;;
55015;SDS011;40919;43.236;21.590;2022-11-06T09:43:04;13.65;;;8.10;;
55015;SDS011;40919;43.236;21.590;2022-11-06T09:45:32;17.40;;;10.43;;
55015;SDS011;40919;43.236;21.590;2022-11-06T09:48:04;18.00;;;13.52;;
55015;SDS011;40919;43.236;21.590;2022-11-06T09:50:33;13.95;;;9.65;;
55015;SDS011;40919;43.236;21.590;2022-11-06T09:53:02;12.68;;;8.65;;
55015;SDS011;40919;43.236;21.590;2022-11-06T09:55:40;16.45;;;9.77;;
55015;SDS011;40919;43.236;21.590;2022-11-06T09:58:12;14.35;;;9.10;;
55015;SDS011;40919;43.236;21.590;2022-11-06T10:00:39;13.05;;;9.13;;
55015;SDS011;40919;43.236;21.590;2022-11-06T10:03:23;14.00;;;9.18;;
55015;SDS011;40919;43.236;21.590;2022-11-06T10:05:51;17.42;;;10.98;;
55015;SDS011;40919;43.236;21.590;2022-11-06T10:08:25;17.55;;;11.25;;
55015;SDS011;40919;43.236;21.590;2022-11-06T10:11:02;16.35;;;10.50;;
55015;SDS011;40919;43.236;21.590;2022-11-06T10:16:28;12.90;;;9.50;;
55015;SDS011;40919;43.236;21.590;2022-11-06T10:21:42;12.35;;;9.10;;
55015;SDS011;40919;43.236;21.590;2022-11-06T10:26:41;18.58;;;10.80;;
55015;SDS011;40919;43.236;21.590;2022-11-06T10:34:16;12.88;;;8.43;;
55015;SDS011;40919;43.236;21.590;2022-11-06T10:36:49;16.60;;;9.18;;
55015;SDS011;40919;43.236;21.590;2022-11-06T10:39:24;17.17;;;9.70;;
55015;SDS011;40919;43.236;21.590;2022-11-06T10:41:53;15.77;;;9.15;;
55015;SDS011;40919;43.236;21.590;2022-11-06T10:44:26;21.55;;;11.98;;
55015;SDS011;40919;43.236;21.590;2022-11-06T10:47:02;20.20;;;11.55;;
55015;SDS011;40919;43.236;21.590;2022-11-06T10:49:40;24.88;;;13.40;;
55015;SDS011;40919;43.236;21.590;2022-11-06T11:00:07;36.85;;;19.52;;
55015;SDS011;40919;43.236;21.590;2022-11-06T11:02:36;26.33;;;15.88;;
55015;SDS011;40919;43.236;21.590;2022-11-06T11:05:12;28.30;;;17.88;;
55015;SDS011;40919;43.236;21.590;2022-11-06T11:07:39;27.40;;;16.35;;
55015;SDS011;40919;43.236;21.590;2022-11-06T11:10:27;21.20;;;12.52;;
55015;SDS011;40919;43.236;21.590;2022-11-06T11:12:55;20.20;;;14.85;;
55015;SDS011;40919;43.236;21.590;2022-11-06T11:15:23;20.33;;;13.63;;
55015;SDS011;40919;43.236;21.590;2022-11-06T11:18:14;26.13;;;19.25;;
55015;SDS011;40919;43.236;21.590;2022-11-06T11:20:44;24.73;;;17.25;;
55015;SDS011;40919;43.236;21.590;2022-11-06T11:23:18;22.45;;;15.35;;
55015;SDS011;40919;43.236;21.590;2022-11-06T11:25:53;23.10;;;15.05;;
55015;SDS011;40919;43.236;21.590;2022-11-06T11:28:32;31.80;;;22.65;;
55015;SDS011;40919;43.236;21.590;2022-11-06T11:31:09;45.90;;;26.77;;
55015;SDS011;40919;43.236;21.590;2022-11-06T11:33:39;27.88;;;16.17;;
55015;SDS011;40919;43.236;21.590;2022-11-06T11:36:05;31.17;;;20.50;;
55015;SDS011;40919;43.236;21.590;2022-11-06T11:38:36;27.40;;;18.15;;
55015;SDS011;40919;43.236;21.590;2022-11-06T11:41:13;24.70;;;16.83;;
55015;SDS011;40919;43.236;21.590;2022-11-06T11:43:40;27.95;;;18.85;;
55015;SDS011;40919;43.236;21.590;2022-11-06T11:48:42;25.35;;;16.63;;
55015;SDS011;40919;43.236;21.590;2022-11-06T11:53:44;27.90;;;17.33;;
55015;SDS011;40919;43.236;21.590;2022-11-06T11:56:14;27.85;;;21.27;;
55015;SDS011;40919;43.236;21.590;2022-11-06T11:58:46;33.80;;;23.00;;
55015;SDS011;40919;43.236;21.590;2022-11-06T12:01:13;24.95;;;17.65;;
55015;SDS011;40919;43.236;21.590;2022-11-06T12:03:40;23.25;;;15.95;;
55015;SDS011;40919;43.236;21.590;2022-11-06T12:06:12;19.55;;;13.63;;
55015;SDS011;40919;43.236;21.590;2022-11-06T12:08:40;16.02;;;12.43;;
55015;SDS011;40919;43.236;21.590;2022-11-06T12:11:11;19.60;;;14.55;;
55015;SDS011;40919;43.236;21.590;2022-11-06T12:13:40;146.63;;;69.30;;
55015;SDS011;40919;43.236;21.590;2022-11-06T12:16:15;140.32;;;73.00;;
55015;SDS011;40919;43.236;21.590;2022-11-06T12:18:44;90.55;;;58.22;;
55015;SDS011;40919;43.236;21.590;2022-11-06T12:21:21;73.75;;;50.55;;
55015;SDS011;40919;43.236;21.590;2022-11-06T12:26:35;38.05;;;26.85;;
55015;SDS011;40919;43.236;21.590;2022-11-06T12:29:05;26.35;;;18.88;;
55015;SDS011;40919;43.236;21.590;2022-11-06T12:31:36;26.42;;;21.17;;
55015;SDS011;40919;43.236;21.590;2022-11-06T12:34:04;31.17;;;22.52;;
55015;SDS011;40919;43.236;21.590;2022-11-06T12:36:31;24.52;;;17.77;;
55015;SDS011;40919;43.236;21.590;2022-11-06T12:39:07;26.60;;;16.90;;
55015;SDS011;40919;43.236;21.590;2022-11-06T12:41:36;21.98;;;13.57;;
55015;SDS011;40919;43.236;21.590;2022-11-06T12:44:07;24.35;;;14.27;;
55015;SDS011;40919;43.236;21.590;2022-11-06T12:46:54;25.23;;;16.92;;
55015;SDS011;40919;43.236;21.590;2022-11-06T13:05:15;23.95;;;15.40;;
55015;SDS011;40919;43.236;21.590;2022-11-06T13:13:22;18.67;;;13.80;;
55015;SDS011;40919;43.236;21.590;2022-11-06T13:18:44;24.23;;;16.67;;
55015;SDS011;40919;43.236;21.590;2022-11-06T13:23:39;23.83;;;16.05;;
55015;SDS011;40919;43.236;21.590;2022-11-06T13:28:48;26.73;;;17.05;;
55015;SDS011;40919;43.236;21.590;2022-11-06T13:31:20;26.92;;;16.05;;
55015;SDS011;40919;43.236;21.590;2022-11-06T13:36:13;23.58;;;15.43;;
55015;SDS011;40919;43.236;21.590;2022-11-06T13:38:40;42.15;;;24.27;;
55015;SDS011;40919;43.236;21.590;2022-11-06T13:41:21;40.75;;;25.65;;
55015;SDS011;40919;43.236;21.590;2022-11-06T13:43:49;38.13;;;24.85;;
55015;SDS011;40919;43.236;21.590;2022-11-06T13:46:25;40.15;;;24.30;;
55015;SDS011;40919;43.236;21.590;2022-11-06T14:06:23;40.92;;;28.42;;
55015;SDS011;40919;43.236;21.590;2022-11-06T14:08:54;65.15;;;41.42;;
55015;SDS011;40919;43.236;21.590;2022-11-06T14:11:25;44.20;;;30.73;;
55015;SDS011;40919;43.236;21.590;2022-11-06T14:16:38;56.08;;;40.65;;
55015;SDS011;40919;43.236;21.590;2022-11-06T14:24:14;48.65;;;34.65;;
55015;SDS011;40919;43.236;21.590;2022-11-06T14:32:09;33.63;;;22.30;;
55015;SDS011;40919;43.236;21.590;2022-11-06T14:34:36;32.85;;;21.45;;
55015;SDS011;40919;43.236;21.590;2022-11-06T14:45:10;25.38;;;15.68;;
55015;SDS011;40919;43.236;21.590;2022-11-06T14:47:39;20.75;;;14.35;;
55015;SDS011;40919;43.236;21.590;2022-11-06T14:52:48;24.30;;;16.83;;
55015;SDS011;40919;43.236;21.590;2022-11-06T14:55:20;22.95;;;15.75;;
55015;SDS011;40919;43.236;21.590;2022-11-06T14:57:49;24.25;;;17.10;;
55015;SDS011;40919;43.236;21.590;2022-11-06T15:03:02;32.83;;;24.52;;
55015;SDS011;40919;43.236;21.590;2022-11-06T15:05:29;29.27;;;19.17;;
55015;SDS011;40919;43.236;21.590;2022-11-06T15:08:00;25.00;;;16.13;;
55015;SDS011;40919;43.236;21.590;2022-11-06T15:11:09;28.65;;;18.15;;
55015;SDS011;40919;43.236;21.590;2022-11-06T15:15:43;22.75;;;14.45;;
55015;SDS011;40919;43.236;21.590;2022-11-06T15:18:11;28.80;;;17.45;;
55015;SDS011;40919;43.236;21.590;2022-11-06T15:20:38;26.90;;;16.58;;
55015;SDS011;40919;43.236;21.590;2022-11-06T15:23:15;26.55;;;16.30;;
55015;SDS011;40919;43.236;21.590;2022-11-06T15:26:27;24.15;;;17.73;;
55015;SDS011;40919;43.236;21.590;2022-11-06T15:28:37;29.30;;;18.58;;
55015;SDS011;40919;43.236;21.590;2022-11-06T15:31:04;26.45;;;16.55;;
55015;SDS011;40919;43.236;21.590;2022-11-06T15:33:33;37.17;;;20.50;;
55015;SDS011;40919;43.236;21.590;2022-11-06T15:36:02;43.50;;;26.98;;
55015;SDS011;40919;43.236;21.590;2022-11-06T15:38:36;44.72;;;27.50;;
55015;SDS011;40919;43.236;21.590;2022-11-06T15:41:03;34.08;;;22.90;;
55015;SDS011;40919;43.236;21.590;2022-11-06T15:43:32;31.75;;;20.02;;
55015;SDS011;40919;43.236;21.590;2022-11-06T15:46:04;37.38;;;23.15;;
55015;SDS011;40919;43.236;21.590;2022-11-06T15:48:30;32.92;;;21.02;;
55015;SDS011;40919;43.236;21.590;2022-11-06T15:50:56;37.70;;;23.60;;
55015;SDS011;40919;43.236;21.590;2022-11-06T15:53:25;31.13;;;20.10;;
55015;SDS011;40919;43.236;21.590;2022-11-06T15:56:01;32.95;;;22.15;;
55015;SDS011;40919;43.236;21.590;2022-11-06T15:58:29;39.72;;;23.30;;
55015;SDS011;40919;43.236;21.590;2022-11-06T16:00:56;73.75;;;39.03;;
55015;SDS011;40919;43.236;21.590;2022-11-06T16:03:23;67.38;;;38.47;;
55015;SDS011;40919;43.236;21.590;2022-11-06T16:05:50;74.85;;;41.17;;
55015;SDS011;40919;43.236;21.590;2022-11-06T16:08:17;44.83;;;27.58;;
55015;SDS011;40919;43.236;21.590;2022-11-06T16:10:45;30.92;;;21.50;;
55015;SDS011;40919;43.236;21.590;2022-11-06T16:13:15;37.80;;;23.83;;
55015;SDS011;40919;43.236;21.590;2022-11-06T16:18:15;29.90;;;19.27;;
55015;SDS011;40919;43.236;21.590;2022-11-06T16:20:42;44.95;;;29.25;;
55015;SDS011;40919;43.236;21.590;2022-11-06T16:23:10;42.28;;;26.50;;
55015;SDS011;40919;43.236;21.590;2022-11-06T16:25:38;33.83;;;22.20;;
55015;SDS011;40919;43.236;21.590;2022-11-06T16:28:12;31.77;;;20.05;;
55015;SDS011;40919;43.236;21.590;2022-11-06T16:30:38;23.55;;;16.98;;
55015;SDS011;40919;43.236;21.590;2022-11-06T16:33:10;31.17;;;19.38;;
55015;SDS011;40919;43.236;21.590;2022-11-06T16:35:43;31.77;;;20.25;;
55015;SDS011;40919;43.236;21.590;2022-11-06T16:43:12;32.75;;;16.80;;
55015;SDS011;40919;43.236;21.590;2022-11-06T16:48:27;30.58;;;19.20;;
55015;SDS011;40919;43.236;21.590;2022-11-06T16:50:56;28.63;;;17.88;;
55015;SDS011;40919;43.236;21.590;2022-11-06T16:53:27;25.08;;;17.88;;
55015;SDS011;40919;43.236;21.590;2022-11-06T16:56:05;31.30;;;21.40;;
55015;SDS011;40919;43.236;21.590;2022-11-06T16:58:54;38.67;;;26.92;;